Station: Bradshaw-Koolendong Valley

  Atmospheric Gas Attenuation - ITU Rec 676-11   --------------- db/100km ---------------
Date Time Temp RH % AH g/m3 Dew Point Wind Direction Speed kph Gust kph Barometer mB Rainfall Since 9am 24GHz 47GHz 76GHz 122GHz 134GHz 241GHz
11 22:30 26.2 88 21.66 24.1 0 0 1013.1 0 46.5 44.6 88.8 235.0 262.9 913.5
11 22:20 26.2 89 21.91 24.2 0 0 1013.1 0 47.0 45.1 90.0 238.3 267.0 927.6
11 22:10 26 89 21.67 24 0 0 1013.1 0 46.5 44.7 89.1 235.8 263.8 916.5
11 22:00 25.9 87 21.06 23.6 0 0 1013.1 0 45.2 43.6 86.2 228.0 254.3 883.5
11 21:50 25.7 88 21.07 23.5 0 0 1013.1 0 45.3 43.7 86.4 228.8 255.1 886.4
11 21:40 25.6 86 20.47 23.2 0 0 1013.1 0 44.0 42.6 83.6 221.2 245.9 854.2
11 21:30 25.5 86 20.36 23 0 0 1013.1 0 43.8 42.4 83.2 220.1 244.5 849.3
11 21:20 25.6 85 20.24 23 0 0 1013.1 0 43.5 42.1 82.5 218.3 242.2 841.5
11 21:10 25.7 85 20.35 23.1 0 0 1013.1 0 43.8 42.3 82.9 219.4 243.7 846.5
11 21:00 25.9 86 20.82 23.4 0 0 1013.1 0 44.7 43.1 85.0 224.9 250.5 870.1
11 20:50 25.9 84 20.34 23.1 0 0 1013.1 0 43.7 42.2 82.6 218.7 242.8 843.7
11 20:40 26 82 19.96 22.8 0 0 1013.1 0 42.9 41.4 80.7 213.6 236.6 821.8
11 20:30 26.3 84 20.8 23.4 0 0 1013.1 0 44.6 42.9 84.4 223.4 248.8 864.4
11 20:20 26.3 80 19.8 22.7 0 0 1013.1 0 42.5 40.9 79.6 210.7 233.1 810.0
11 20:10 26.6 82 20.64 23.4 0 0 1013.1 0 44.3 42.4 83.3 220.5 245.3 852.2
11 20:00 26.7 80 20.25 23 0 2 1013.1 0 43.4 41.6 81.3 215.2 238.8 829.9
11 19:50 26.9 79 20.22 22.9 2 4 1013.1 0 43.3 41.4 81.0 214.3 237.7 826.1
11 19:40 27.1 77 19.93 22.7 4 6 1013.1 0 42.7 40.8 79.4 210.1 232.6 808.4
11 19:30 27.1 80 20.7 23.3 0 0 1013.1 0 44.3 42.2 83.0 219.8 244.6 849.8
11 19:20 27.1 78 20.19 22.9 0 0 1013.1 0 43.3 41.3 80.6 213.4 236.6 822.3
11 19:10 27.5 79 20.9 23.5 0 0 1013.1 0 44.7 42.4 83.6 221.2 246.4 856.1
11 19:00 28 75 20.4 23.2 0 0 1013.1 0 43.6 41.2 80.7 213.4 237.0 823.7
11 18:50 28.8 74 21.03 23.7 0 0 1013.1 0 44.8 42.0 82.7 219.0 244.1 848.5
11 18:40 29.2 71 20.62 23.4 0 0 1013.1 0 43.9 41.0 80.4 212.8 236.6 822.3
11 18:30 29.3 68 19.86 22.8 0 0 1013.1 0 42.3 39.6 76.8 203.3 224.9 781.7
11 18:20 29.9 65 19.61 22.8 0 0 1013.1 0 41.7 38.9 75.1 198.7 219.4 762.8
11 18:10 30.3 60 18.5 21.9 0 0 1013.1 0 39.4 36.7 69.8 184.7 202.4 703.5
11 18:00 31 58 18.57 22 0 0 1013.1 0 39.4 36.5 69.5 183.8 201.5 700.6
11 17:50 31.5 52 17.1 20.7 0 0 1013.1 0 36.3 33.9 62.9 166.3 180.1 626.1
11 17:40 31.9 51 17.13 20.8 4 4 1013.1 0 36.4 33.7 62.7 165.8 179.6 624.3
11 17:30 32.3 49 16.81 20.5 2 4 1013.1 0 35.7 33.1 61.1 161.5 174.4 606.4
11 17:20 32.8 47 16.56 20.3 4 4 1013.1 0 35.1 32.5 59.7 157.8 170.1 591.2
11 17:10 33.3 46 16.64 20.4 4 6 1013.1 0 35.2 32.4 59.7 157.7 170.0 591.1
11 17:00 33.7 46 17 20.5 6 9 1013.1 0 35.9 32.8 60.8 160.7 173.8 604.3
11 16:50 33.9 45 16.8 20.6 6 7 1013.1 0 35.5 32.5 59.8 158.2 170.8 593.8
11 16:40 33.8 44 16.34 20.2 9 13 1013.1 0 34.6 31.8 58.1 153.6 165.1 574.0
11 16:30 34.1 45 16.98 20.8 6 7 1013.1 0 35.9 32.7 60.4 159.7 172.6 600.3
11 16:20 34.2 43 16.31 20.2 2 4 1013.1 0 34.5 31.6 57.7 152.5 163.9 569.8
11 16:10 35.2 39 15.59 19.5 7 9 1013.1 0 32.9 30.1 54.3 143.4 152.9 531.6
11 16:00 35 42 16.61 20.5 7 13 1013.1 0 35.0 31.8 58.3 154.1 166.0 577.2
11 15:50 34.4 44 16.87 20.7 6 7 1013.1 0 35.6 32.4 59.7 157.9 170.6 593.1
11 15:40 34.1 42 15.85 19.7 9 11 1013.1 0 33.5 30.9 56.0 148.0 158.3 550.3
11 15:30 34.6 40 15.49 19.4 11 22 1013.1 0 32.7 30.2 54.3 143.4 152.8 531.3
11 15:20 36.4 35 14.89 18.9 20 28 1013.1 0 31.4 28.7 50.9 134.5 142.3 494.6
11 15:10 37.9 32 14.7 18.8 9 13 1013.1 0 30.9 27.9 49.3 130.2 137.4 477.8
11 15:00 38.5 32 15.15 18.9 4 7 1013.1 0 31.8 28.4 50.5 133.5 141.6 492.4
11 14:50 37.8 31 14.17 18.2 6 6 1013.1 0 29.8 27.2 47.5 125.5 131.5 457.2
11 14:40 38.2 31 14.46 18.6 4 4 1013.1 0 30.4 27.5 48.3 127.5 134.2 466.5
11 14:30 37.7 31 14.09 17.7 6 13 1013.1 0 29.7 27.1 47.3 124.9 130.8 454.6
11 14:20 37.8 32 14.62 18.7 2 6 1013.1 0 30.7 27.9 49.1 129.6 136.7 475.2
11 14:10 37.4 36 16.12 20.2 7 7 1013.1 0 33.8 30.2 54.7 144.7 155.1 539.4
11 14:00 37.1 37 16.31 20 7 13 1013.1 0 34.2 30.6 55.6 147.1 157.9 549.4
11 13:50 36.9 36 15.71 19.8 4 4 1013.1 0 33.0 29.7 53.6 141.6 151.1 525.5
11 13:40 36.6 37 15.9 19.9 9 13 1013.1 0 33.4 30.1 54.5 144.0 154.0 535.5
11 13:30 36.6 38 16.33 20 4 11 1013.1 0 34.3 30.8 56.1 148.2 159.2 553.7
11 13:20 36.8 39 16.93 20.9 6 7 1013.1 0 35.5 31.6 58.2 153.9 166.2 578.1
11 13:10 36.1 38 15.91 19.9 4 6 1013.1 0 33.5 30.3 54.8 144.9 155.1 539.2
11 13:00 36.5 36 15.39 19.4 6 9 1013.1 0 32.4 29.4 52.7 139.1 148.0 514.7
11 12:50 36.4 37 15.74 19.7 6 7 1013.1 0 33.1 29.9 54.0 142.7 152.4 530.0
11 12:40 36.6 38 16.33 20.3 7 11 1013.1 0 34.3 30.8 56.1 148.2 159.2 553.7
11 12:30 36.3 38 16.08 20.1 4 13 1013.1 0 33.8 30.5 55.3 146.3 156.7 545.1
11 12:20 36.2 38 16 20 7 9 1013.1 0 33.7 30.4 55.1 145.7 156.0 542.4
11 12:10 35.8 40 16.49 20.4 2 4 1013.1 0 34.7 31.3 57.2 151.3 162.8 566.2
11 12:00 36 42 17.5 21.1 2 13 1013.1 0 36.8 32.8 61.0 161.3 175.1 609.0
11 11:50 35.4 41 16.56 20.5 11 13 1013.1 0 34.9 31.5 57.8 152.8 164.5 572.1
11 11:40 35.4 42 16.96 20.9 7 11 1013.1 0 35.7 32.2 59.3 156.9 169.5 589.7
11 11:30 35.4 48 19.38 23 4 9 1013.1 0 40.7 36.1 69.0 182.6 201.1 699.7
11 11:20 34.7 50 19.47 23 2 4 1013.1 0 40.9 36.5 70.0 185.2 204.1 710.2
11 11:10 33.7 54 19.95 23.1 0 0 1013.1 0 42.0 37.8 72.9 193.0 213.5 742.6
11 11:00 33.6 55 20.22 23.3 6 9 1013.1 0 42.6 38.3 74.2 196.4 217.5 756.7
11 10:50 33.4 54 19.64 23.1 0 0 1013.1 0 41.4 37.4 71.9 190.2 210.0 730.4
11 10:40 33.2 59 21.23 24.1 6 7 1013.1 0 44.7 40.2 79.0 209.2 233.1 811.0
11 10:30 32.9 61 21.61 24.4 4 7 1013.1 0 45.6 41.1 81.0 214.5 239.6 833.5
11 10:20 32.3 64 21.96 24.6 4 4 1013.1 0 46.4 42.0 83.2 220.4 246.7 858.1
11 10:10 32.1 64 21.73 24.6 0 0 1013.1 0 45.9 41.7 82.4 218.2 244.0 848.4
11 10:00 31.4 68 22.24 24.8 0 6 1013.1 0 47.1 43.0 85.5 226.5 254.0 883.1
11 09:50 30.6 71 22.24 24.7 2 4 1013.1 0 47.2 43.4 86.4 228.9 256.7 892.5
11 09:40 30.3 71 21.89 24.6 4 4 1013.1 0 46.5 42.9 85.1 225.4 252.3 877.3
11 09:30 30.2 73 22.38 24.8 2 6 1013.1 0 47.5 43.9 87.6 231.9 260.2 904.7
11 09:20 29.7 73 21.78 24.5 0 0 1013.1 0 46.3 43.0 85.3 225.8 252.7 878.3
11 09:10 29.6 73 21.67 24.4 0 0 1013.1 0 46.1 42.8 84.9 224.7 251.3 873.6
11 09:00 28.9 75 21.43 24 0 0 1013.1 0 45.7 42.7 84.5 223.8 249.9 868.8
11 08:50 28 78 21.21 23.8 0 0 1013.1 0 45.3 42.8 84.5 223.7 249.5 867.2
11 08:40 27.2 77 20.04 22.8 0 0 1013.1 0 42.9 40.9 79.8 211.2 234.0 813.2
11 08:30 26 81 19.72 22.5 0 0 1013.1 0 42.4 40.9 79.6 210.5 232.8 808.9
11 08:20 25.2 85 19.79 22.5 0 0 1013.1 0 42.6 41.5 80.7 213.6 236.4 821.3
11 08:10 24 91 19.8 22.4 0 0 1013.1 0 42.8 42.1 82.1 217.2 240.5 835.1
11 08:00 22.7 96 19.39 22 0 0 1013.1 0 42.0 41.9 81.5 215.6 238.1 826.7
11 07:50 22.1 97 18.93 21.6 0 0 1013.1 0 41.1 41.3 79.9 211.3 232.6 807.5
11 07:40 21.6 97 18.4 21.1 0 0 1013.1 0 40.0 40.5 77.8 205.7 225.6 783.2
11 07:30 21.1 97 17.87 20.6 0 0 1013.1 0 38.9 39.7 75.7 200.2 218.7 759.0
11 07:20 21 97 17.77 20.5 0 0 1013.1 0 38.7 39.6 75.3 199.2 217.4 754.5
11 07:10 20.9 96 17.48 20.2 0 0 1013.1 0 38.1 39.1 74.0 195.7 213.1 739.5
11 07:00 20.9 96 17.48 20.2 0 0 1013.1 0 38.1 39.1 74.0 195.7 213.1 739.5
11 06:50 20.9 96 17.48 20.2 0 0 1013.1 0 38.1 39.1 74.0 195.7 213.1 739.5
11 06:40 20.9 96 17.48 20.2 0 0 1013.1 0 38.1 39.1 74.0 195.7 213.1 739.5
11 06:30 20.8 96 17.38 20.1 0 0 1013.1 0 37.9 38.9 73.6 194.7 211.8 735.0
11 06:20 21 96 17.58 20.3 0 0 1013.1 0 38.3 39.2 74.4 196.7 214.4 744.0
11 06:10 20.9 96 17.48 20.2 0 0 1013.1 0 38.1 39.1 74.0 195.7 213.1 739.5
11 06:00 20.9 95 17.3 20.1 0 0 1013.1 0 37.7 38.7 73.2 193.4 210.3 729.7

Last Refresh: 11-Apr-2021 22:35:00

Bureau of Meteorology